createdAt,value
2018-09-04T00:00:40.042Z,51.70
2018-09-04T00:03:06.311Z,51.10
2018-09-04T00:05:33.206Z,51.60
2018-09-04T00:07:59.649Z,51.40
2018-09-04T00:10:26.624Z,51.50
2018-09-04T00:12:52.818Z,51.30
2018-09-04T00:15:19.079Z,51.50
2018-09-04T00:17:45.271Z,51.80
2018-09-04T00:20:11.509Z,51.50
2018-09-04T00:22:37.728Z,51.50
2018-09-04T00:25:03.996Z,51.90
2018-09-04T00:27:30.180Z,51.50
2018-09-04T00:29:56.408Z,51.40
2018-09-04T00:32:22.636Z,51.60
2018-09-04T00:34:48.924Z,51.50
2018-09-04T00:37:15.095Z,51.60
2018-09-04T00:39:41.328Z,51.50
2018-09-04T00:42:07.552Z,51.50
2018-09-04T00:44:33.806Z,51.30
2018-09-04T00:47:00.012Z,51.10
2018-09-04T00:49:26.233Z,51.30
2018-09-04T00:51:52.620Z,51.10
2018-09-04T00:54:18.919Z,51.20
2018-09-04T00:56:45.137Z,51.50
2018-09-04T00:59:11.402Z,51.60
2018-09-04T01:01:37.582Z,51.50
2018-09-04T01:04:03.811Z,51.50
2018-09-04T01:06:30.045Z,51.50
2018-09-04T01:08:56.258Z,51.50
2018-09-04T01:11:22.489Z,52.10
2018-09-04T01:13:48.713Z,52.20
2018-09-04T01:16:14.935Z,51.90
2018-09-04T01:18:41.190Z,52.00
2018-09-04T01:21:07.392Z,52.10
2018-09-04T01:23:33.616Z,52.80
2018-09-04T01:25:59.850Z,52.10
2018-09-04T01:28:26.079Z,52.00
2018-09-04T01:30:52.309Z,52.00
2018-09-04T01:33:18.557Z,51.80
2018-09-04T01:35:44.761Z,51.50
2018-09-04T01:38:11.263Z,51.50
2018-09-04T01:40:38.247Z,51.40
2018-09-04T01:43:04.477Z,51.40
2018-09-04T01:45:30.903Z,51.30
2018-09-04T01:47:57.133Z,51.40
2018-09-04T01:50:23.354Z,51.40
2018-09-04T01:52:49.640Z,51.50
2018-09-04T01:55:16.014Z,51.50
2018-09-04T01:57:44.500Z,51.80
2018-09-04T02:00:10.788Z,51.10
2018-09-04T02:02:37.164Z,51.20
2018-09-04T02:05:03.393Z,51.40
2018-09-04T02:07:29.612Z,51.50
2018-09-04T02:09:55.854Z,51.50
2018-09-04T02:12:22.065Z,51.60
2018-09-04T02:14:48.292Z,51.40
2018-09-04T02:17:14.553Z,51.40
2018-09-04T02:19:40.743Z,51.10
2018-09-04T02:22:07.004Z,50.80
2018-09-04T02:24:33.252Z,51.50
2018-09-04T02:26:59.627Z,51.20
2018-09-04T02:29:25.861Z,51.50
2018-09-04T02:31:52.090Z,51.20
2018-09-04T02:34:18.311Z,51.00
2018-09-04T02:36:44.548Z,51.10
2018-09-04T02:39:10.801Z,51.20
2018-09-04T02:41:36.989Z,51.30
2018-09-04T02:44:03.225Z,51.30
2018-09-04T02:46:29.454Z,51.10
2018-09-04T02:48:55.731Z,51.00
2018-09-04T02:51:21.920Z,51.00
2018-09-04T02:53:48.132Z,51.00
2018-09-04T02:56:14.355Z,51.00
2018-09-04T02:58:40.583Z,51.10
2018-09-04T03:01:06.819Z,51.50
2018-09-04T03:03:33.035Z,51.30
2018-09-04T03:05:59.264Z,51.50
2018-09-04T03:08:25.492Z,51.40
2018-09-04T03:10:51.725Z,51.00
2018-09-04T03:13:18.027Z,51.10
2018-09-04T03:15:44.377Z,51.10
2018-09-04T03:18:10.648Z,51.40
2018-09-04T03:23:09.339Z,51.50
2018-09-04T03:25:35.641Z,51.10
2018-09-04T03:28:01.863Z,51.10
2018-09-04T03:30:28.099Z,51.20
2018-09-04T03:32:54.327Z,50.90
2018-09-04T03:35:20.544Z,51.50
2018-09-04T03:37:46.832Z,51.10
2018-09-04T03:40:14.655Z,51.00
2018-09-04T03:42:40.872Z,51.40
2018-09-04T03:45:07.099Z,51.10
2018-09-04T03:47:33.326Z,50.90
2018-09-04T03:49:59.556Z,51.10
2018-09-04T03:52:25.814Z,51.10
2018-09-04T03:54:53.036Z,51.20
2018-09-04T03:57:19.259Z,51.20
2018-09-04T03:59:45.489Z,51.30
2018-09-04T04:02:11.722Z,51.50
2018-09-04T04:04:37.934Z,50.90
2018-09-04T04:07:04.219Z,50.70
2018-09-04T04:09:30.397Z,50.90
2018-09-04T04:11:56.697Z,50.90
2018-09-04T04:14:23.089Z,50.70
2018-09-04T04:16:49.480Z,50.90
2018-09-04T04:19:15.715Z,50.90
2018-09-04T04:21:41.944Z,50.60
2018-09-04T04:24:08.172Z,50.90
2018-09-04T04:26:34.433Z,50.90
2018-09-04T04:29:00.625Z,50.70
2018-09-04T04:31:26.853Z,50.80
2018-09-04T04:33:53.088Z,51.20
2018-09-04T04:36:19.332Z,50.90
2018-09-04T04:38:45.583Z,51.50
2018-09-04T04:41:11.968Z,51.20
2018-09-04T04:43:38.193Z,51.20
2018-09-04T04:46:04.419Z,51.60
2018-09-04T04:48:30.651Z,51.70
2018-09-04T04:50:56.871Z,51.70
2018-09-04T04:53:23.112Z,51.80
2018-09-04T04:55:49.364Z,51.50
2018-09-04T04:58:15.612Z,52.00
2018-09-04T05:00:41.783Z,51.60
2018-09-04T05:03:08.077Z,51.80
2018-09-04T05:05:34.443Z,52.10
2018-09-04T05:08:00.671Z,51.70
2018-09-04T05:10:26.908Z,51.50
2018-09-04T05:12:53.131Z,51.60
2018-09-04T05:15:19.548Z,52.50
2018-09-04T05:17:45.785Z,51.80
2018-09-04T05:20:12.013Z,51.80
2018-09-04T05:22:38.291Z,51.80
2018-09-04T05:25:04.713Z,51.80
2018-09-04T05:27:30.895Z,51.60
2018-09-04T05:29:57.124Z,51.40
2018-09-04T05:32:23.347Z,51.80
2018-09-04T05:34:49.579Z,51.60
2018-09-04T05:37:15.818Z,51.50
2018-09-04T05:39:42.100Z,51.10
2018-09-04T05:42:08.261Z,51.20
2018-09-04T05:44:34.498Z,51.60
2018-09-04T05:47:00.752Z,51.40
2018-09-04T05:49:26.943Z,51.70
2018-09-04T05:51:53.204Z,51.50
2018-09-04T05:54:19.400Z,51.90
2018-09-04T05:56:45.629Z,52.10
2018-09-04T05:59:11.852Z,52.00
2018-09-04T06:01:38.079Z,52.00
2018-09-04T06:04:04.301Z,51.50
2018-09-04T06:06:30.556Z,51.70
2018-09-04T06:08:56.779Z,51.80
2018-09-04T06:11:22.990Z,51.60
2018-09-04T06:13:49.312Z,51.30
2018-09-04T06:16:16.470Z,51.40
2018-09-04T06:18:42.699Z,50.80
2018-09-04T06:21:08.999Z,51.80
2018-09-04T06:23:35.356Z,51.90
2018-09-04T06:26:01.585Z,51.10
2018-09-04T06:28:27.839Z,51.70
2018-09-04T06:30:54.043Z,51.50
2018-09-04T06:33:20.278Z,51.40
2018-09-04T06:35:46.500Z,51.70
2018-09-04T06:38:12.777Z,52.00
2018-09-04T06:40:39.159Z,52.10
2018-09-04T06:43:05.388Z,52.80
2018-09-04T06:45:31.607Z,53.00
2018-09-04T06:47:58.829Z,53.00
2018-09-04T06:50:25.946Z,53.20
2018-09-04T06:52:52.137Z,53.10
2018-09-04T06:55:18.360Z,53.30
2018-09-04T06:57:44.645Z,53.20
2018-09-04T07:00:11.016Z,53.20
2018-09-04T07:02:37.290Z,53.40
2018-09-04T07:05:03.479Z,53.40
2018-09-04T07:07:29.696Z,53.20
2018-09-04T07:09:55.969Z,53.50
2018-09-04T07:12:22.165Z,53.20
2018-09-04T07:14:48.394Z,53.10
2018-09-04T07:17:14.618Z,52.80
2018-09-04T07:19:40.841Z,53.10
2018-09-04T07:22:07.063Z,53.20
2018-09-04T07:24:33.296Z,53.20
2018-09-04T07:26:59.576Z,53.40
2018-09-04T07:29:25.754Z,52.80
2018-09-04T07:31:51.989Z,53.30
2018-09-04T07:34:18.590Z,53.10
2018-09-04T07:36:45.665Z,52.60
2018-09-04T07:39:11.883Z,52.60
2018-09-04T07:41:38.779Z,52.90
2018-09-04T07:44:04.955Z,53.10
2018-09-04T07:46:31.187Z,52.10
2018-09-04T07:48:57.425Z,52.10
2018-09-04T07:51:23.688Z,52.10
2018-09-04T07:53:49.918Z,51.60
2018-09-04T07:56:16.301Z,51.70
2018-09-04T07:58:42.529Z,51.70
2018-09-04T08:01:08.785Z,51.10
2018-09-04T08:03:34.984Z,51.30
2018-09-04T08:06:01.206Z,50.90
2018-09-04T08:08:27.432Z,51.30
2018-09-04T08:10:53.664Z,52.10
2018-09-04T08:13:19.948Z,51.50
2018-09-04T08:15:46.124Z,51.40
2018-09-04T08:18:12.602Z,51.20
2018-09-04T08:20:38.858Z,51.10
2018-09-04T08:23:05.251Z,51.00
2018-09-04T08:25:31.443Z,50.90
2018-09-04T08:27:57.675Z,50.90
2018-09-04T08:30:23.915Z,50.70
2018-09-04T08:32:50.141Z,50.60
2018-09-04T08:35:17.364Z,50.40
2018-09-04T08:37:43.604Z,50.40
2018-09-04T08:40:09.917Z,50.30
2018-09-04T08:42:36.253Z,50.50
2018-09-04T08:45:02.892Z,50.40
2018-09-04T08:47:29.188Z,50.60
2018-09-04T08:49:55.548Z,51.30
2018-09-04T08:52:21.828Z,50.20
2018-09-04T08:54:48.070Z,50.40
2018-09-04T08:57:14.264Z,50.30
2018-09-04T08:59:40.479Z,50.10
2018-09-04T09:02:07.079Z,50.30
2018-09-04T09:04:34.151Z,49.90
2018-09-04T09:07:00.381Z,49.90
2018-09-04T09:09:26.614Z,50.00
2018-09-04T09:11:52.832Z,50.10
2018-09-04T09:14:19.091Z,49.80
2018-09-04T09:16:45.433Z,49.90
2018-09-04T09:19:11.716Z,50.00
2018-09-04T09:21:37.963Z,49.60
2018-09-04T09:24:04.294Z,49.60
2018-09-04T09:26:30.634Z,49.70
2018-09-04T09:29:02.776Z,49.60
2018-09-04T09:31:29.007Z,49.60
2018-09-04T09:33:55.233Z,49.80
2018-09-04T09:36:21.456Z,49.70
2018-09-04T09:38:47.684Z,49.60
2018-09-04T09:41:14.119Z,49.90
2018-09-04T09:43:40.410Z,49.70
2018-09-04T09:46:07.394Z,49.80
2018-09-04T09:48:33.624Z,49.80
2018-09-04T09:50:59.839Z,50.00
2018-09-04T09:53:27.539Z,50.00
2018-09-04T09:55:53.744Z,49.70
2018-09-04T09:58:20.195Z,49.60
2018-09-04T10:00:46.593Z,49.40
2018-09-04T10:03:12.826Z,49.30
2018-09-04T10:05:39.056Z,49.20
2018-09-04T10:08:05.349Z,49.20
2018-09-04T10:10:31.712Z,49.30
2018-09-04T10:12:57.941Z,49.30
2018-09-04T10:15:24.164Z,49.60
2018-09-04T10:17:50.436Z,49.60
2018-09-04T10:20:16.621Z,49.50
2018-09-04T10:22:42.894Z,49.40
2018-09-04T10:25:09.321Z,49.40
2018-09-04T10:27:35.556Z,49.50
2018-09-04T10:30:01.729Z,49.30
2018-09-04T10:32:27.966Z,49.20
2018-09-04T10:34:54.191Z,49.20
2018-09-04T10:37:20.419Z,49.30
2018-09-04T10:39:46.652Z,49.10
2018-09-04T10:42:12.914Z,49.10
2018-09-04T10:44:39.296Z,49.20
2018-09-04T10:47:05.548Z,49.10
2018-09-04T10:49:31.755Z,49.20
2018-09-04T10:51:58.049Z,49.20
2018-09-04T10:54:24.312Z,49.20
2018-09-04T10:56:50.644Z,49.30
2018-09-04T10:59:16.901Z,49.20
2018-09-04T11:01:43.100Z,49.20
2018-09-04T11:04:14.910Z,49.20
2018-09-04T11:06:41.096Z,49.20
2018-09-04T11:09:07.378Z,49.20
2018-09-04T11:11:33.753Z,49.20
2018-09-04T11:14:00.009Z,49.20
2018-09-04T11:16:26.217Z,49.20
2018-09-04T11:18:52.474Z,49.20
2018-09-04T11:21:18.656Z,49.20
2018-09-04T11:23:44.966Z,49.20
2018-09-04T11:26:11.308Z,49.20
2018-09-04T11:28:37.531Z,49.10
2018-09-04T11:31:03.778Z,49.10
2018-09-04T11:33:29.989Z,49.10
2018-09-04T11:35:56.217Z,49.10
2018-09-04T11:38:22.458Z,49.00
2018-09-04T11:40:48.742Z,49.00
2018-09-04T11:43:15.148Z,49.00
2018-09-04T11:45:41.329Z,49.00
2018-09-04T11:48:07.565Z,49.00
2018-09-04T11:50:33.788Z,49.00
2018-09-04T11:53:00.018Z,49.00
2018-09-04T11:55:26.253Z,49.00
2018-09-04T11:57:52.528Z,49.00
2018-09-04T12:00:19.116Z,49.00
2018-09-04T12:02:45.359Z,49.00
2018-09-04T12:05:11.567Z,49.00
2018-09-04T12:07:37.796Z,49.00
2018-09-04T12:10:04.069Z,49.00
2018-09-04T12:12:30.303Z,49.00
2018-09-04T12:14:57.511Z,49.10
2018-09-04T12:17:23.727Z,49.10
2018-09-04T12:19:49.955Z,49.10
2018-09-04T12:22:16.184Z,49.00
2018-09-04T12:24:42.473Z,49.10
2018-09-04T12:27:08.905Z,49.10
2018-09-04T12:29:35.312Z,49.20
2018-09-04T12:32:01.511Z,49.10
2018-09-04T12:34:27.777Z,49.20
2018-09-04T12:36:54.058Z,49.10
2018-09-04T12:39:20.388Z,49.20
2018-09-04T12:41:46.618Z,49.20
2018-09-04T12:44:12.852Z,49.20
2018-09-04T12:46:39.471Z,49.20
2018-09-04T12:49:05.714Z,49.20
2018-09-04T12:51:31.961Z,49.20
2018-09-04T12:53:58.164Z,49.20
2018-09-04T12:56:25.260Z,49.20
2018-09-04T12:58:51.448Z,49.20
2018-09-04T13:01:17.666Z,49.20
2018-09-04T13:03:43.927Z,49.20
2018-09-04T13:06:10.370Z,49.20
2018-09-04T13:08:36.544Z,49.20
2018-09-04T13:11:02.785Z,49.20
2018-09-04T13:13:29.048Z,49.20
2018-09-04T13:15:55.247Z,49.20
2018-09-04T13:18:21.459Z,49.20
2018-09-04T13:20:47.693Z,49.30
2018-09-04T13:23:14.000Z,49.30
2018-09-04T13:25:40.964Z,49.30
2018-09-04T13:28:07.259Z,49.30
2018-09-04T13:30:33.658Z,49.30
2018-09-04T13:32:59.864Z,49.30
2018-09-04T13:35:26.072Z,49.30
2018-09-04T13:37:52.324Z,49.30
2018-09-04T13:40:18.528Z,49.30
2018-09-04T13:42:45.775Z,49.40
2018-09-04T13:45:12.016Z,49.30
2018-09-04T13:47:38.239Z,49.30
2018-09-04T13:50:04.455Z,49.30
2018-09-04T13:52:30.741Z,49.30
2018-09-04T13:54:56.916Z,49.40
2018-09-04T13:57:23.152Z,49.50
2018-09-04T13:59:49.397Z,49.50
2018-09-04T14:02:15.625Z,49.50
2018-09-04T14:04:41.829Z,49.50
2018-09-04T14:07:08.078Z,49.50
2018-09-04T14:09:34.325Z,49.50
2018-09-04T14:12:00.502Z,49.50
2018-09-04T14:14:26.738Z,49.60
2018-09-04T14:16:57.104Z,49.60
2018-09-04T14:19:23.592Z,49.60
2018-09-04T14:21:49.956Z,49.60
2018-09-04T14:24:16.145Z,49.60
2018-09-04T14:26:42.382Z,49.70
2018-09-04T14:29:08.615Z,49.70
2018-09-04T14:31:34.833Z,49.70
2018-09-04T14:34:01.061Z,49.70
2018-09-04T14:36:27.340Z,49.70
2018-09-04T14:38:53.730Z,49.80
2018-09-04T14:41:19.966Z,49.80
2018-09-04T14:43:46.168Z,49.80
2018-09-04T14:46:12.397Z,49.80
2018-09-04T14:48:38.632Z,49.90
2018-09-04T14:51:04.888Z,50.00
2018-09-04T14:53:31.083Z,50.00
2018-09-04T14:55:57.312Z,50.10
2018-09-04T14:58:23.535Z,50.10
2018-09-04T15:00:49.771Z,50.10
2018-09-04T15:03:15.999Z,50.20
2018-09-04T15:05:42.216Z,50.20
2018-09-04T15:08:08.457Z,50.10
2018-09-04T15:10:34.762Z,50.20
2018-09-04T15:13:01.152Z,50.20
2018-09-04T15:15:27.349Z,50.20
2018-09-04T15:17:53.565Z,50.20
2018-09-04T15:20:19.808Z,50.20
2018-09-04T15:22:46.112Z,50.20
2018-09-04T15:25:12.460Z,50.20
2018-09-04T15:27:39.537Z,50.30
2018-09-04T15:30:05.758Z,50.30
2018-09-04T15:32:32.011Z,50.30
2018-09-04T15:34:58.172Z,50.30
2018-09-04T15:37:24.412Z,50.30
2018-09-04T15:39:50.650Z,50.30
2018-09-04T15:42:16.865Z,50.30
2018-09-04T15:44:43.092Z,50.30
2018-09-04T15:47:09.315Z,50.30
2018-09-04T15:49:35.606Z,50.30
2018-09-04T15:52:02.003Z,50.40
2018-09-04T15:54:28.207Z,50.30
2018-09-04T15:56:54.525Z,50.40
2018-09-04T15:59:20.858Z,50.40
2018-09-04T16:01:47.088Z,50.40
2018-09-04T16:04:13.324Z,50.40
2018-09-04T16:06:39.587Z,50.40
2018-09-04T16:09:05.785Z,50.50
2018-09-04T16:11:32.033Z,50.50
2018-09-04T16:13:58.228Z,50.40
2018-09-04T16:16:24.456Z,50.40
2018-09-04T16:18:50.681Z,50.40
2018-09-04T16:21:16.907Z,50.50
2018-09-04T16:23:43.647Z,50.40
2018-09-04T16:26:15.459Z,50.60
2018-09-04T16:28:41.755Z,50.60
2018-09-04T16:31:08.052Z,50.60
2018-09-04T16:33:34.404Z,50.50
2018-09-04T16:36:00.621Z,50.50
2018-09-04T16:38:26.848Z,50.50
2018-09-04T16:40:53.079Z,50.50
2018-09-04T16:43:19.357Z,50.60
2018-09-04T16:45:45.536Z,50.60
2018-09-04T16:48:11.760Z,50.60
2018-09-04T16:50:38.050Z,50.60
2018-09-04T16:53:04.219Z,50.50
2018-09-04T16:55:30.450Z,50.60
2018-09-04T16:57:56.710Z,50.60
2018-09-04T17:00:22.908Z,50.60
2018-09-04T17:02:50.473Z,50.60
2018-09-04T17:05:16.830Z,50.60
2018-09-04T17:07:43.008Z,50.70
2018-09-04T17:10:09.259Z,50.60
2018-09-04T17:12:35.460Z,50.60
2018-09-04T17:15:01.689Z,50.60
2018-09-04T17:17:27.923Z,50.60
2018-09-04T17:19:54.146Z,50.60
2018-09-04T17:22:20.432Z,50.60
2018-09-04T17:24:46.962Z,50.60
2018-09-04T17:27:13.244Z,50.70
2018-09-04T17:29:39.490Z,50.70
2018-09-04T17:32:05.709Z,50.70
2018-09-04T17:34:32.127Z,50.70
2018-09-04T17:36:58.356Z,50.70
2018-09-04T17:39:24.631Z,50.70
2018-09-04T17:41:51.230Z,50.70
2018-09-04T17:44:17.465Z,50.70
2018-09-04T17:46:43.711Z,50.70
2018-09-04T17:49:09.896Z,50.70
2018-09-04T17:51:36.180Z,50.70
2018-09-04T17:54:02.347Z,50.60
2018-09-04T17:56:28.582Z,50.60
2018-09-04T17:58:54.812Z,50.60
2018-09-04T18:01:21.047Z,50.60
2018-09-04T18:03:47.308Z,50.60
2018-09-04T18:06:13.696Z,50.60
2018-09-04T18:08:40.150Z,50.60
2018-09-04T18:11:06.403Z,50.60
2018-09-04T18:13:32.792Z,50.60
2018-09-04T18:15:59.061Z,50.60
2018-09-04T18:18:25.244Z,50.60
2018-09-04T18:20:51.524Z,50.60
2018-09-04T18:23:17.695Z,50.60
2018-09-04T18:25:43.929Z,50.60
2018-09-04T18:28:10.159Z,50.60
2018-09-04T18:30:36.375Z,50.60
2018-09-04T18:33:02.604Z,50.60
2018-09-04T18:35:28.877Z,50.60
2018-09-04T18:37:55.055Z,50.60
2018-09-04T18:40:22.165Z,51.00
2018-09-04T18:42:48.550Z,50.50
2018-09-04T18:45:14.773Z,50.50
2018-09-04T18:47:41.200Z,50.50
2018-09-04T18:50:07.467Z,50.50
2018-09-04T18:52:33.646Z,50.50
2018-09-04T18:55:00.138Z,50.50
2018-09-04T18:57:26.520Z,50.50
2018-09-04T18:59:52.845Z,50.50
2018-09-04T19:02:19.172Z,50.50
2018-09-04T19:04:45.412Z,50.50
2018-09-04T19:07:11.875Z,50.50
2018-09-04T19:09:38.076Z,50.50
2018-09-04T19:12:04.297Z,50.50
2018-09-04T19:14:30.523Z,50.50
2018-09-04T19:16:56.771Z,50.50
2018-09-04T19:19:22.987Z,50.50
2018-09-04T19:21:49.208Z,50.50
2018-09-04T19:24:15.447Z,50.50
2018-09-04T19:26:41.653Z,50.60
2018-09-04T19:29:07.900Z,50.60
2018-09-04T19:31:34.112Z,50.60
2018-09-04T19:34:00.364Z,50.60
2018-09-04T19:36:26.565Z,50.60
2018-09-04T19:38:52.953Z,50.60
2018-09-04T19:41:19.252Z,50.70
2018-09-04T19:43:45.455Z,50.70
2018-09-04T19:46:11.685Z,50.70
2018-09-04T19:48:37.912Z,50.80
2018-09-04T19:51:04.146Z,50.80
2018-09-04T19:53:30.364Z,50.80
2018-09-04T19:55:56.601Z,50.80
2018-09-04T19:58:22.828Z,50.90
2018-09-04T20:00:51.377Z,50.90
2018-09-04T20:03:17.784Z,50.90
2018-09-04T20:05:43.973Z,50.90
2018-09-04T20:08:10.184Z,50.90
2018-09-04T20:10:36.411Z,50.90
2018-09-04T20:13:02.692Z,51.00
2018-09-04T20:15:29.067Z,51.00
2018-09-04T20:17:55.315Z,51.00
2018-09-04T20:20:21.531Z,51.00
2018-09-04T20:22:47.779Z,51.10
2018-09-04T20:25:13.988Z,51.10
2018-09-04T20:27:40.205Z,51.20
2018-09-04T20:30:06.434Z,51.20
2018-09-04T20:32:32.692Z,51.20
2018-09-04T20:34:59.916Z,51.30
2018-09-04T20:37:27.373Z,51.30
2018-09-04T20:39:53.601Z,51.30
2018-09-04T20:42:19.871Z,51.30
2018-09-04T20:44:46.278Z,51.30
2018-09-04T20:47:12.501Z,51.30
2018-09-04T20:49:38.715Z,51.30
2018-09-04T20:52:04.964Z,51.40
2018-09-04T20:54:31.209Z,51.40
2018-09-04T20:56:57.601Z,51.40
2018-09-04T20:59:23.848Z,51.50
2018-09-04T21:01:50.068Z,51.40
2018-09-04T21:04:16.288Z,51.50
2018-09-04T21:06:42.516Z,51.50
2018-09-04T21:09:08.757Z,51.60
2018-09-04T21:11:34.986Z,51.60
2018-09-04T21:14:01.209Z,51.60
2018-09-04T21:16:27.439Z,51.70
2018-09-04T21:18:53.660Z,51.70
2018-09-04T21:21:19.876Z,51.80
2018-09-04T21:23:46.106Z,51.70
2018-09-04T21:26:12.341Z,51.80
2018-09-04T21:28:38.562Z,51.80
2018-09-04T21:31:04.792Z,51.90
2018-09-04T21:33:31.020Z,51.80
2018-09-04T21:35:57.248Z,51.80
2018-09-04T21:38:23.471Z,51.90
2018-09-04T21:40:49.699Z,51.90
2018-09-04T21:43:15.968Z,52.00
2018-09-04T21:45:42.152Z,52.00
2018-09-04T21:48:08.380Z,52.00
2018-09-04T21:50:34.830Z,52.10
2018-09-04T21:53:01.068Z,52.10
2018-09-04T21:55:27.316Z,52.00
2018-09-04T21:57:53.483Z,52.10
2018-09-04T22:00:19.735Z,52.20
2018-09-04T22:02:45.996Z,52.20
2018-09-04T22:05:12.174Z,52.20
2018-09-04T22:07:38.428Z,52.20
2018-09-04T22:10:04.631Z,52.20
2018-09-04T22:12:31.671Z,52.30
2018-09-04T22:14:57.900Z,52.30
2018-09-04T22:17:24.145Z,52.30
2018-09-04T22:19:50.359Z,52.30
2018-09-04T22:22:16.592Z,52.40
2018-09-04T22:24:42.820Z,52.40
2018-09-04T22:27:09.118Z,52.40
2018-09-04T22:29:35.468Z,52.50
2018-09-04T22:32:02.176Z,52.50
2018-09-04T22:34:29.158Z,52.50
2018-09-04T23:58:51.432Z,52.60
